sensor_id;sensor_type;location;lat;lon;timestamp;pressure;altitude;pressure_sealevel;temperature;humidity
33554;BME280;19885;42.208;24.952;2023-05-02T00:02:06;100346.22;;;14.43;72.41
33554;BME280;19885;42.208;24.952;2023-05-02T00:04:31;100347.09;;;14.57;72.49
33554;BME280;19885;42.208;24.952;2023-05-02T00:06:56;100351.41;;;14.70;72.06
33554;BME280;19885;42.208;24.952;2023-05-02T00:09:22;100341.84;;;14.57;69.54
33554;BME280;19885;42.208;24.952;2023-05-02T00:11:47;100347.09;;;14.57;72.37
33554;BME280;19885;42.208;24.952;2023-05-02T00:14:12;100348.81;;;14.67;71.18
33554;BME280;19885;42.208;24.952;2023-05-02T00:16:38;100347.97;;;14.62;71.14
33554;BME280;19885;42.208;24.952;2023-05-02T00:19:03;100354.09;;;14.46;69.40
33554;BME280;19885;42.208;24.952;2023-05-02T00:21:28;100355.84;;;14.35;70.13
33554;BME280;19885;42.208;24.952;2023-05-02T00:23:54;100358.47;;;14.24;71.49
33554;BME280;19885;42.208;24.952;2023-05-02T00:26:21;100355.81;;;14.25;70.47
33554;BME280;19885;42.208;24.952;2023-05-02T00:28:46;100354.94;;;14.16;71.30
33554;BME280;19885;42.208;24.952;2023-05-02T00:31:12;100364.53;;;13.97;71.17
33554;BME280;19885;42.208;24.952;2023-05-02T00:33:37;100361.91;;;13.67;72.04
33554;BME280;19885;42.208;24.952;2023-05-02T00:36:02;100371.47;;;13.59;72.42
33554;BME280;19885;42.208;24.952;2023-05-02T00:38:28;100371.44;;;13.44;72.61
33554;BME280;19885;42.208;24.952;2023-05-02T00:40:53;100358.28;;;13.30;73.57
33554;BME280;19885;42.208;24.952;2023-05-02T00:43:19;100372.28;;;13.38;73.15
33554;BME280;19885;42.208;24.952;2023-05-02T00:45:45;100375.78;;;13.39;72.96
33554;BME280;19885;42.208;24.952;2023-05-02T00:48:11;100363.50;;;13.29;73.67
33554;BME280;19885;42.208;24.952;2023-05-02T00:50:38;100369.63;;;13.34;72.77
33554;BME280;19885;42.208;24.952;2023-05-02T00:53:09;100379.22;;;13.32;72.62
33554;BME280;19885;42.208;24.952;2023-05-02T00:55:35;100373.06;;;13.15;72.58
33554;BME280;19885;42.208;24.952;2023-05-02T00:58:07;100383.41;;;13.00;73.01
33554;BME280;19885;42.208;24.952;2023-05-02T01:01:42;100381.66;;;13.02;72.61
33554;BME280;19885;42.208;24.952;2023-05-02T01:06:29;100393.78;;;12.78;74.05
33554;BME280;19885;42.208;24.952;2023-05-02T01:11:38;100390.06;;;12.45;74.03
33554;BME280;19885;42.208;24.952;2023-05-02T01:14:07;100385.63;;;12.39;73.96
33554;BME280;19885;42.208;24.952;2023-05-02T01:16:36;100395.22;;;12.39;73.90
33554;BME280;19885;42.208;24.952;2023-05-02T01:19:11;100399.63;;;12.46;74.59
33554;BME280;19885;42.208;24.952;2023-05-02T01:21:39;100392.66;;;12.48;73.36
33554;BME280;19885;42.208;24.952;2023-05-02T01:24:06;100394.53;;;12.62;73.10
33554;BME280;19885;42.208;24.952;2023-05-02T01:26:45;100398.06;;;12.69;72.74
33554;BME280;19885;42.208;24.952;2023-05-02T01:29:15;100402.28;;;12.50;73.62
33554;BME280;19885;42.208;24.952;2023-05-02T01:31:41;100398.81;;;12.51;73.96
33554;BME280;19885;42.208;24.952;2023-05-02T01:34:08;100392.63;;;12.40;74.32
33554;BME280;19885;42.208;24.952;2023-05-02T01:36:34;100389.06;;;12.32;74.41
33554;BME280;19885;42.208;24.952;2023-05-02T01:39:00;100394.25;;;12.29;74.02
33554;BME280;19885;42.208;24.952;2023-05-02T01:41:28;100395.03;;;12.17;74.01
33554;BME280;19885;42.208;24.952;2023-05-02T01:43:57;100393.22;;;12.07;74.69
33554;BME280;19885;42.208;24.952;2023-05-02T01:46:26;100399.22;;;11.99;75.08
33554;BME280;19885;42.208;24.952;2023-05-02T01:48:53;100402.69;;;11.99;74.76
33554;BME280;19885;42.208;24.952;2023-05-02T01:51:19;100394.81;;;11.95;74.88
33554;BME280;19885;42.208;24.952;2023-05-02T01:53:45;100398.44;;;12.09;74.17
33554;BME280;19885;42.208;24.952;2023-05-02T01:56:12;100388.91;;;12.15;73.86
33554;BME280;19885;42.208;24.952;2023-05-02T01:58:38;100394.06;;;12.06;75.44
33554;BME280;19885;42.208;24.952;2023-05-02T02:01:05;100395.06;;;12.22;74.44
33554;BME280;19885;42.208;24.952;2023-05-02T02:03:33;100396.81;;;12.25;73.75
33554;BME280;19885;42.208;24.952;2023-05-02T02:05:58;100395.16;;;12.34;72.07
33554;BME280;19885;42.208;24.952;2023-05-02T02:08:25;100398.59;;;12.27;71.66
33554;BME280;19885;42.208;24.952;2023-05-02T02:10:53;100398.63;;;12.30;71.57
33554;BME280;19885;42.208;24.952;2023-05-02T02:13:26;100390.75;;;12.27;71.59
33554;BME280;19885;42.208;24.952;2023-05-02T02:15:56;100398.56;;;12.21;72.17
33554;BME280;19885;42.208;24.952;2023-05-02T02:18:23;100397.72;;;12.25;73.49
33554;BME280;19885;42.208;24.952;2023-05-02T02:20:50;100388.03;;;12.12;73.65
33554;BME280;19885;42.208;24.952;2023-05-02T02:23:17;100390.63;;;12.10;73.23
33554;BME280;19885;42.208;24.952;2023-05-02T02:25:44;100391.56;;;12.17;73.89
33554;BME280;19885;42.208;24.952;2023-05-02T02:28:09;100394.94;;;12.08;73.48
33554;BME280;19885;42.208;24.952;2023-05-02T02:30:34;100387.97;;;12.07;71.95
33554;BME280;19885;42.208;24.952;2023-05-02T02:32:59;100392.31;;;12.08;70.84
33554;BME280;19885;42.208;24.952;2023-05-02T02:35:26;100401.97;;;12.14;70.06
33554;BME280;19885;42.208;24.952;2023-05-02T02:38:01;100410.44;;;11.89;70.81
33554;BME280;19885;42.208;24.952;2023-05-02T02:40:35;100413.56;;;11.59;72.13
33554;BME280;19885;42.208;24.952;2023-05-02T02:43:02;100415.19;;;11.49;72.86
33554;BME280;19885;42.208;24.952;2023-05-02T02:53:16;100413.06;;;11.18;75.29
33554;BME280;19885;42.208;24.952;2023-05-02T02:55:54;100418.34;;;11.24;75.39
33554;BME280;19885;42.208;24.952;2023-05-02T03:00:56;100411.31;;;11.17;78.31
33554;BME280;19885;42.208;24.952;2023-05-02T03:03:23;100421.81;;;11.23;78.35
33554;BME280;19885;42.208;24.952;2023-05-02T03:05:53;100416.72;;;11.34;76.55
33554;BME280;19885;42.208;24.952;2023-05-02T03:08:18;100422.06;;;11.41;75.42
33554;BME280;19885;42.208;24.952;2023-05-02T03:10:44;100421.31;;;11.52;73.47
33554;BME280;19885;42.208;24.952;2023-05-02T03:13:09;100423.88;;;11.48;73.19
33554;BME280;19885;42.208;24.952;2023-05-02T03:18:03;100428.88;;;11.33;73.28
33554;BME280;19885;42.208;24.952;2023-05-02T03:20:32;100438.31;;;11.21;74.00
33554;BME280;19885;42.208;24.952;2023-05-02T03:22:57;100432.91;;;11.06;75.09
33554;BME280;19885;42.208;24.952;2023-05-02T03:25:23;100445.81;;;10.98;75.71
33554;BME280;19885;42.208;24.952;2023-05-02T03:27:48;100436.00;;;10.81;76.20
33554;BME280;19885;42.208;24.952;2023-05-02T03:30:14;100442.00;;;10.75;76.99
33554;BME280;19885;42.208;24.952;2023-05-02T03:32:40;100451.66;;;10.82;77.52
33554;BME280;19885;42.208;24.952;2023-05-02T03:35:06;100455.97;;;10.80;78.00
33554;BME280;19885;42.208;24.952;2023-05-02T03:40:55;100459.69;;;10.94;78.01
33554;BME280;19885;42.208;24.952;2023-05-02T03:43:20;100462.09;;;10.82;77.54
33554;BME280;19885;42.208;24.952;2023-05-02T03:45:46;100463.81;;;10.82;78.44
33554;BME280;19885;42.208;24.952;2023-05-02T03:48:11;100473.59;;;10.96;78.34
33554;BME280;19885;42.208;24.952;2023-05-02T03:50:36;100463.25;;;11.02;77.68
33554;BME280;19885;42.208;24.952;2023-05-02T03:53:01;100463.31;;;11.05;77.28
33554;BME280;19885;42.208;24.952;2023-05-02T03:55:30;100471.31;;;11.17;78.22
33554;BME280;19885;42.208;24.952;2023-05-02T03:57:56;100486.34;;;11.36;76.67
33554;BME280;19885;42.208;24.952;2023-05-02T04:00:21;100478.59;;;11.41;76.10
33554;BME280;19885;42.208;24.952;2023-05-02T04:02:47;100482.91;;;11.37;76.70
33554;BME280;19885;42.208;24.952;2023-05-02T04:05:15;100476.97;;;11.49;75.68
33554;BME280;19885;42.208;24.952;2023-05-02T04:07:40;100482.25;;;11.55;75.91
33554;BME280;19885;42.208;24.952;2023-05-02T04:10:06;100485.75;;;11.59;76.03
33554;BME280;19885;42.208;24.952;2023-05-02T04:12:31;100484.97;;;11.63;75.81
33554;BME280;19885;42.208;24.952;2023-05-02T04:14:57;100500.66;;;11.66;75.54
33554;BME280;19885;42.208;24.952;2023-05-02T04:17:23;100493.56;;;11.56;76.03
33554;BME280;19885;42.208;24.952;2023-05-02T04:19:48;100494.22;;;11.39;77.53
33554;BME280;19885;42.208;24.952;2023-05-02T04:22:13;100496.78;;;11.36;79.13
33554;BME280;19885;42.208;24.952;2023-05-02T04:24:38;100494.13;;;11.33;79.90
33554;BME280;19885;42.208;24.952;2023-05-02T04:27:04;100508.75;;;11.22;78.67
33554;BME280;19885;42.208;24.952;2023-05-02T04:29:29;100501.94;;;11.33;78.63
33554;BME280;19885;42.208;24.952;2023-05-02T04:31:55;100435.19;;;10.86;78.61
33554;BME280;19885;42.208;24.952;2023-05-02T04:34:20;100498.50;;;11.34;79.11
33554;BME280;19885;42.208;24.952;2023-05-02T04:36:46;100501.19;;;11.39;78.29
33554;BME280;19885;42.208;24.952;2023-05-02T04:39:11;100505.81;;;11.61;77.95
33554;BME280;19885;42.208;24.952;2023-05-02T04:41:37;100496.97;;;11.48;75.27
33554;BME280;19885;42.208;24.952;2023-05-02T04:44:05;100499.84;;;11.68;76.42
33554;BME280;19885;42.208;24.952;2023-05-02T04:46:30;100505.97;;;11.70;75.00
33554;BME280;19885;42.208;24.952;2023-05-02T04:48:55;100502.72;;;11.91;74.58
33554;BME280;19885;42.208;24.952;2023-05-02T04:51:21;100506.22;;;11.91;74.24
33554;BME280;19885;42.208;24.952;2023-05-02T04:53:46;100509.88;;;12.05;74.74
33554;BME280;19885;42.208;24.952;2023-05-02T04:56:11;100514.31;;;12.15;74.83
33554;BME280;19885;42.208;24.952;2023-05-02T04:58:37;100513.47;;;12.15;74.45
33554;BME280;19885;42.208;24.952;2023-05-02T05:01:02;100506.31;;;11.99;72.79
33554;BME280;19885;42.208;24.952;2023-05-02T05:03:27;100512.34;;;11.93;73.82
33554;BME280;19885;42.208;24.952;2023-05-02T05:05:57;100512.72;;;12.28;73.87
33554;BME280;19885;42.208;24.952;2023-05-02T05:08:22;100511.28;;;12.59;72.60
33554;BME280;19885;42.208;24.952;2023-05-02T05:10:47;100512.28;;;12.71;71.54
33554;BME280;19885;42.208;24.952;2023-05-02T05:13:13;100509.72;;;12.82;71.38
33554;BME280;19885;42.208;24.952;2023-05-02T05:15:38;100507.69;;;12.46;71.46
33554;BME280;19885;42.208;24.952;2023-05-02T05:18:04;100518.19;;;12.49;71.16
33554;BME280;19885;42.208;24.952;2023-05-02T05:20:30;100517.38;;;12.59;71.97
33554;BME280;19885;42.208;24.952;2023-05-02T05:22:55;100517.53;;;12.77;73.56
33554;BME280;19885;42.208;24.952;2023-05-02T05:25:21;100520.38;;;13.03;72.51
33554;BME280;19885;42.208;24.952;2023-05-02T05:27:46;100526.41;;;12.98;71.17
33554;BME280;19885;42.208;24.952;2023-05-02T05:30:11;100524.88;;;13.22;69.81
33554;BME280;19885;42.208;24.952;2023-05-02T05:32:37;100523.16;;;13.23;70.71
33554;BME280;19885;42.208;24.952;2023-05-02T05:35:02;100521.38;;;13.19;69.76
33554;BME280;19885;42.208;24.952;2023-05-02T05:37:28;100525.03;;;13.42;69.83
33554;BME280;19885;42.208;24.952;2023-05-02T05:39:54;100526.91;;;13.69;69.26
33554;BME280;19885;42.208;24.952;2023-05-02T05:42:19;100481.34;;;13.35;69.10
33554;BME280;19885;42.208;24.952;2023-05-02T05:44:44;100531.34;;;13.83;69.13
33554;BME280;19885;42.208;24.952;2023-05-02T05:47:10;100531.34;;;13.83;67.44
33554;BME280;19885;42.208;24.952;2023-05-02T05:49:35;100532.34;;;14.18;67.09
33554;BME280;19885;42.208;24.952;2023-05-02T05:52:01;100537.53;;;14.00;65.20
33554;BME280;19885;42.208;24.952;2023-05-02T05:54:26;100539.31;;;14.13;68.79
33554;BME280;19885;42.208;24.952;2023-05-02T05:56:51;100543.78;;;14.34;68.87
33554;BME280;19885;42.208;24.952;2023-05-02T05:59:17;100542.94;;;14.55;68.22
33554;BME280;19885;42.208;24.952;2023-05-02T06:01:42;100528.09;;;14.55;67.47
33554;BME280;19885;42.208;24.952;2023-05-02T06:04:07;100534.22;;;14.60;67.34
33554;BME280;19885;42.208;24.952;2023-05-02T06:06:33;100541.22;;;14.87;66.83
33554;BME280;19885;42.208;24.952;2023-05-02T06:08:58;100542.94;;;15.06;67.13
33554;BME280;19885;42.208;24.952;2023-05-02T06:11:24;100539.47;;;15.16;64.14
33554;BME280;19885;42.208;24.952;2023-05-02T06:13:53;100535.94;;;15.35;62.15
33554;BME280;19885;42.208;24.952;2023-05-02T06:16:19;100524.53;;;15.53;62.08
33554;BME280;19885;42.208;24.952;2023-05-02T06:18:45;100531.50;;;15.69;60.75
33554;BME280;19885;42.208;24.952;2023-05-02T06:21:10;100539.31;;;15.86;61.38
33554;BME280;19885;42.208;24.952;2023-05-02T06:23:35;100528.81;;;15.80;60.32
33554;BME280;19885;42.208;24.952;2023-05-02T06:26:01;100523.44;;;16.10;60.04
33554;BME280;19885;42.208;24.952;2023-05-02T06:28:28;100521.69;;;16.12;59.56
33554;BME280;19885;42.208;24.952;2023-05-02T06:30:57;100527.72;;;16.29;57.30
33554;BME280;19885;42.208;24.952;2023-05-02T06:33:22;100521.50;;;16.40;58.47
33554;BME280;19885;42.208;24.952;2023-05-02T06:35:51;100514.44;;;16.53;56.63
33554;BME280;19885;42.208;24.952;2023-05-02T06:38:20;100516.16;;;16.60;56.48
33554;BME280;19885;42.208;24.952;2023-05-02T06:40:45;100521.31;;;16.72;54.48
33554;BME280;19885;42.208;24.952;2023-05-02T06:43:11;100514.16;;;16.88;57.62
33554;BME280;19885;42.208;24.952;2023-05-02T06:45:36;100515.84;;;16.96;59.55
33554;BME280;19885;42.208;24.952;2023-05-02T06:48:02;100511.38;;;17.07;52.46
33554;BME280;19885;42.208;24.952;2023-05-02T06:50:28;100509.66;;;17.00;49.19
33554;BME280;19885;42.208;24.952;2023-05-02T06:58:41;100511.13;;;17.32;50.27
33554;BME280;19885;42.208;24.952;2023-05-02T07:01:07;100510.16;;;17.39;47.93
33554;BME280;19885;42.208;24.952;2023-05-02T07:03:32;100517.03;;;17.58;47.74
33554;BME280;19885;42.208;24.952;2023-05-02T07:05:57;100515.03;;;17.78;46.92
33554;BME280;19885;42.208;24.952;2023-05-02T07:08:22;100510.50;;;17.89;46.17
33554;BME280;19885;42.208;24.952;2023-05-02T07:10:49;100460.66;;;17.68;46.53
33554;BME280;19885;42.208;24.952;2023-05-02T07:13:14;100504.31;;;17.90;46.18
33554;BME280;19885;42.208;24.952;2023-05-02T07:15:39;100515.50;;;18.09;46.79
33554;BME280;19885;42.208;24.952;2023-05-02T07:18:05;100515.47;;;18.12;44.19
33554;BME280;19885;42.208;24.952;2023-05-02T07:20:30;100509.09;;;18.26;45.17
33554;BME280;19885;42.208;24.952;2023-05-02T07:22:56;100507.19;;;18.37;45.53
33554;BME280;19885;42.208;24.952;2023-05-02T07:25:21;100507.16;;;18.39;43.64
33554;BME280;19885;42.208;24.952;2023-05-02T07:27:47;100515.06;;;18.42;43.30
33554;BME280;19885;42.208;24.952;2023-05-02T07:30:12;100499.47;;;18.22;42.19
33554;BME280;19885;42.208;24.952;2023-05-02T07:32:37;100509.78;;;18.42;44.27
33554;BME280;19885;42.208;24.952;2023-05-02T07:35:03;100507.00;;;18.52;42.08
33554;BME280;19885;42.208;24.952;2023-05-02T07:37:31;100512.03;;;18.68;45.19
33554;BME280;19885;42.208;24.952;2023-05-02T07:39:57;100510.16;;;18.76;42.88
33554;BME280;19885;42.208;24.952;2023-05-02T07:42:27;100506.56;;;18.80;42.20
33554;BME280;19885;42.208;24.952;2023-05-02T07:44:52;100508.31;;;18.81;40.80
33554;BME280;19885;42.208;24.952;2023-05-02T07:47:17;100510.13;;;18.77;43.97
33554;BME280;19885;42.208;24.952;2023-05-02T07:49:43;100508.34;;;18.78;41.67
33554;BME280;19885;42.208;24.952;2023-05-02T07:52:08;100516.06;;;18.91;43.74
33554;BME280;19885;42.208;24.952;2023-05-02T07:54:33;100509.88;;;18.91;41.42
33554;BME280;19885;42.208;24.952;2023-05-02T07:56:59;100516.94;;;18.92;42.74
33554;BME280;19885;42.208;24.952;2023-05-02T07:59:28;100507.22;;;18.94;42.70
33554;BME280;19885;42.208;24.952;2023-05-02T08:01:54;100511.38;;;19.07;41.53
33554;BME280;19885;42.208;24.952;2023-05-02T08:04:19;100512.41;;;18.97;42.50
33554;BME280;19885;42.208;24.952;2023-05-02T08:06:44;100513.06;;;19.11;40.00
33554;BME280;19885;42.208;24.952;2023-05-02T08:09:09;100507.78;;;19.12;41.74
33554;BME280;19885;42.208;24.952;2023-05-02T08:11:35;100508.53;;;19.19;44.13
33554;BME280;19885;42.208;24.952;2023-05-02T08:14:00;100509.13;;;19.35;42.23
33554;BME280;19885;42.208;24.952;2023-05-02T08:16:25;100510.06;;;19.31;37.86
33554;BME280;19885;42.208;24.952;2023-05-02T08:18:50;100502.00;;;19.38;39.87
33554;BME280;19885;42.208;24.952;2023-05-02T08:21:16;100502.09;;;19.32;39.59
33554;BME280;19885;42.208;24.952;2023-05-02T08:23:41;100502.91;;;19.39;38.73
33554;BME280;19885;42.208;24.952;2023-05-02T08:26:06;100503.78;;;19.39;40.61
33554;BME280;19885;42.208;24.952;2023-05-02T08:28:32;100477.06;;;19.51;40.95
33554;BME280;19885;42.208;24.952;2023-05-02T08:30:57;100502.22;;;19.72;40.26
33554;BME280;19885;42.208;24.952;2023-05-02T08:33:23;100497.63;;;19.81;39.10
33554;BME280;19885;42.208;24.952;2023-05-02T08:35:48;100492.47;;;19.75;39.64
33554;BME280;19885;42.208;24.952;2023-05-02T08:38:14;100490.41;;;19.89;38.98
33554;BME280;19885;42.208;24.952;2023-05-02T08:40:39;100494.56;;;19.58;38.25
33554;BME280;19885;42.208;24.952;2023-05-02T08:43:04;100477.75;;;19.62;39.77
33554;BME280;19885;42.208;24.952;2023-05-02T08:45:40;100483.13;;;20.01;40.21
33554;BME280;19885;42.208;24.952;2023-05-02T08:48:07;100491.16;;;19.96;36.84
33554;BME280;19885;42.208;24.952;2023-05-02T08:50:36;100480.59;;;19.94;38.47
33554;BME280;19885;42.208;24.952;2023-05-02T08:53:04;100483.03;;;20.04;37.56
33554;BME280;19885;42.208;24.952;2023-05-02T08:55:30;100478.81;;;19.97;37.32
33554;BME280;19885;42.208;24.952;2023-05-02T08:57:58;100460.97;;;20.05;37.13
33554;BME280;19885;42.208;24.952;2023-05-02T09:00:24;100482.72;;;20.19;37.80
33554;BME280;19885;42.208;24.952;2023-05-02T09:05:38;100479.13;;;20.23;36.61
33554;BME280;19885;42.208;24.952;2023-05-02T09:08:04;100480.81;;;20.25;36.83
33554;BME280;19885;42.208;24.952;2023-05-02T09:10:30;100482.44;;;20.31;36.67
33554;BME280;19885;42.208;24.952;2023-05-02T09:13:11;100478.13;;;20.27;40.11
33554;BME280;19885;42.208;24.952;2023-05-02T09:15:56;100473.63;;;20.32;37.89
33554;BME280;19885;42.208;24.952;2023-05-02T09:18:22;100467.22;;;20.42;37.59
33554;BME280;19885;42.208;24.952;2023-05-02T09:20:49;100460.66;;;20.56;37.83
33554;BME280;19885;42.208;24.952;2023-05-02T09:23:15;100459.16;;;20.45;36.03
33554;BME280;19885;42.208;24.952;2023-05-02T09:25:40;100453.34;;;20.66;39.60
33554;BME280;19885;42.208;24.952;2023-05-02T09:28:06;100454.31;;;20.63;36.18
33554;BME280;19885;42.208;24.952;2023-05-02T09:30:31;100457.13;;;20.56;39.14
33554;BME280;19885;42.208;24.952;2023-05-02T09:32:58;100450.66;;;20.69;39.02
33554;BME280;19885;42.208;24.952;2023-05-02T09:35:23;100467.50;;;21.00;40.45
33554;BME280;19885;42.208;24.952;2023-05-02T09:37:55;100445.59;;;20.94;39.98
33554;BME280;19885;42.208;24.952;2023-05-02T09:40:22;100433.78;;;21.07;36.34
33554;BME280;19885;42.208;24.952;2023-05-02T09:42:48;100441.34;;;21.20;34.38
33554;BME280;19885;42.208;24.952;2023-05-02T09:45:24;100438.34;;;21.00;34.97
33554;BME280;19885;42.208;24.952;2023-05-02T09:47:50;100431.16;;;21.05;36.28
33554;BME280;19885;42.208;24.952;2023-05-02T09:50:35;100434.22;;;21.22;39.30
33554;BME280;19885;42.208;24.952;2023-05-02T09:53:06;100434.78;;;21.35;37.85
33554;BME280;19885;42.208;24.952;2023-05-02T09:55:32;100432.56;;;21.18;36.67
33554;BME280;19885;42.208;24.952;2023-05-02T09:57:58;100432.25;;;21.30;37.72
33554;BME280;19885;42.208;24.952;2023-05-02T10:00:42;100422.19;;;21.42;37.46
33554;BME280;19885;42.208;24.952;2023-05-02T10:03:08;100429.63;;;21.60;37.19
33554;BME280;19885;42.208;24.952;2023-05-02T10:05:38;100416.91;;;21.71;35.81
33554;BME280;19885;42.208;24.952;2023-05-02T10:08:07;100424.41;;;21.57;35.74
33554;BME280;19885;42.208;24.952;2023-05-02T10:10:39;100423.38;;;21.61;38.91
33554;BME280;19885;42.208;24.952;2023-05-02T10:13:07;100427.00;;;21.58;36.03
33554;BME280;19885;42.208;24.952;2023-05-02T10:15:33;100422.75;;;21.53;40.88
33554;BME280;19885;42.208;24.952;2023-05-02T10:18:08;100417.94;;;21.65;36.95
33554;BME280;19885;42.208;24.952;2023-05-02T10:21:04;100405.84;;;21.86;37.04
33554;BME280;19885;42.208;24.952;2023-05-02T10:23:28;100396.19;;;21.85;36.66
33554;BME280;19885;42.208;24.952;2023-05-02T10:25:56;100400.19;;;21.98;35.96
33554;BME280;19885;42.208;24.952;2023-05-02T10:28:21;100399.25;;;21.99;35.06
33554;BME280;19885;42.208;24.952;2023-05-02T10:30:48;100395.25;;;22.14;34.30
33554;BME280;19885;42.208;24.952;2023-05-02T10:33:15;100402.16;;;22.19;35.26
33554;BME280;19885;42.208;24.952;2023-05-02T10:35:43;100389.22;;;22.09;34.29
33554;BME280;19885;42.208;24.952;2023-05-02T10:38:11;100388.88;;;22.19;34.65
33554;BME280;19885;42.208;24.952;2023-05-02T10:40:38;100385.06;;;22.28;33.18
33554;BME280;19885;42.208;24.952;2023-05-02T10:43:04;100374.91;;;22.13;33.31
33554;BME280;19885;42.208;24.952;2023-05-02T10:45:32;100380.25;;;22.39;34.29
33554;BME280;19885;42.208;24.952;2023-05-02T10:48:23;100376.72;;;22.38;31.76
33554;BME280;19885;42.208;24.952;2023-05-02T10:50:52;100376.66;;;22.40;31.71
33554;BME280;19885;42.208;24.952;2023-05-02T10:53:21;100373.63;;;22.26;32.59
33554;BME280;19885;42.208;24.952;2023-05-02T10:58:31;100367.53;;;22.75;32.16
33554;BME280;19885;42.208;24.952;2023-05-02T11:01:38;100363.94;;;22.49;31.50
33554;BME280;19885;42.208;24.952;2023-05-02T11:04:08;100366.50;;;22.52;32.80
33554;BME280;19885;42.208;24.952;2023-05-02T11:07:20;100368.78;;;22.64;33.44
33554;BME280;19885;42.208;24.952;2023-05-02T11:11:50;100309.13;;;22.47;33.83
33554;BME280;19885;42.208;24.952;2023-05-02T11:14:42;100360.06;;;22.86;30.03
33554;BME280;19885;42.208;24.952;2023-05-02T11:17:09;100349.22;;;22.92;30.53
33554;BME280;19885;42.208;24.952;2023-05-02T11:24:44;100349.16;;;22.93;32.27
33554;BME280;19885;42.208;24.952;2023-05-02T11:30:00;100335.81;;;23.18;31.76
33554;BME280;19885;42.208;24.952;2023-05-02T11:35:18;100334.22;;;23.14;30.27
33554;BME280;19885;42.208;24.952;2023-05-02T11:40:18;100328.78;;;23.17;29.92
33554;BME280;19885;42.208;24.952;2023-05-02T11:42:43;100333.31;;;23.38;30.69
33554;BME280;19885;42.208;24.952;2023-05-02T11:45:09;100316.44;;;23.39;30.86
33554;BME280;19885;42.208;24.952;2023-05-02T11:47:34;100321.28;;;23.28;32.47
33554;BME280;19885;42.208;24.952;2023-05-02T11:50:03;100319.19;;;23.36;32.80
33554;BME280;19885;42.208;24.952;2023-05-02T11:52:28;100305.97;;;23.34;31.75
33554;BME280;19885;42.208;24.952;2023-05-02T11:54:54;100308.47;;;23.39;34.60
33554;BME280;19885;42.208;24.952;2023-05-02T11:57:21;100305.88;;;23.13;31.45
33554;BME280;19885;42.208;24.952;2023-05-02T12:02:15;100293.16;;;22.98;33.89
33554;BME280;19885;42.208;24.952;2023-05-02T12:04:41;100292.41;;;22.69;33.23
33554;BME280;19885;42.208;24.952;2023-05-02T12:07:07;100290.94;;;22.86;30.87
33554;BME280;19885;42.208;24.952;2023-05-02T12:09:33;100291.47;;;22.95;32.36
33554;BME280;19885;42.208;24.952;2023-05-02T12:11:58;100285.75;;;23.06;32.10
33554;BME280;19885;42.208;24.952;2023-05-02T12:14:27;100288.53;;;23.03;31.46
33554;BME280;19885;42.208;24.952;2023-05-02T12:16:53;100291.31;;;23.23;32.10
33554;BME280;19885;42.208;24.952;2023-05-02T12:19:19;100292.81;;;23.30;30.64
33554;BME280;19885;42.208;24.952;2023-05-02T12:21:46;100284.03;;;23.28;31.28
33554;BME280;19885;42.208;24.952;2023-05-02T12:24:13;100273.06;;;23.37;31.93
33554;BME280;19885;42.208;24.952;2023-05-02T12:26:39;100277.56;;;23.35;31.13
33554;BME280;19885;42.208;24.952;2023-05-02T12:29:06;100273.97;;;23.36;31.00
33554;BME280;19885;42.208;24.952;2023-05-02T12:31:33;100263.66;;;23.50;33.96
33554;BME280;19885;42.208;24.952;2023-05-02T12:33:58;100269.16;;;23.67;31.50
33554;BME280;19885;42.208;24.952;2023-05-02T12:36:25;100250.16;;;23.55;30.19
33554;BME280;19885;42.208;24.952;2023-05-02T12:38:54;100251.34;;;23.69;32.06
33554;BME280;19885;42.208;24.952;2023-05-02T12:41:50;100249.66;;;23.88;31.48
33554;BME280;19885;42.208;24.952;2023-05-02T12:44:16;100177.47;;;23.31;32.80
33554;BME280;19885;42.208;24.952;2023-05-02T12:46:59;100237.91;;;23.72;31.21
33554;BME280;19885;42.208;24.952;2023-05-02T12:49:25;100230.19;;;23.66;31.02
33554;BME280;19885;42.208;24.952;2023-05-02T12:51:53;100224.06;;;23.64;30.47
33554;BME280;19885;42.208;24.952;2023-05-02T12:54:22;100229.63;;;23.80;31.92
33554;BME280;19885;42.208;24.952;2023-05-02T12:56:48;100213.06;;;23.93;30.94
33554;BME280;19885;42.208;24.952;2023-05-02T12:59:31;100211.28;;;23.94;30.96
33554;BME280;19885;42.208;24.952;2023-05-02T13:01:58;100214.38;;;24.03;31.08
33554;BME280;19885;42.208;24.952;2023-05-02T13:04:36;100200.13;;;23.84;30.11
33554;BME280;19885;42.208;24.952;2023-05-02T13:07:03;100213.97;;;23.92;29.65
33554;BME280;19885;42.208;24.952;2023-05-02T13:09:28;100202.88;;;23.61;28.40
33554;BME280;19885;42.208;24.952;2023-05-02T13:11:54;100208.47;;;23.55;29.87
33554;BME280;19885;42.208;24.952;2023-05-02T13:14:19;100208.38;;;23.57;29.22
33554;BME280;19885;42.208;24.952;2023-05-02T13:16:45;100209.44;;;23.53;31.09
33554;BME280;19885;42.208;24.952;2023-05-02T13:19:10;100210.56;;;23.47;29.28
33554;BME280;19885;42.208;24.952;2023-05-02T13:21:35;100211.06;;;23.57;33.24
33554;BME280;19885;42.208;24.952;2023-05-02T13:24:01;100216.75;;;23.48;29.62
33554;BME280;19885;42.208;24.952;2023-05-02T13:26:28;100213.72;;;23.33;29.76
33554;BME280;19885;42.208;24.952;2023-05-02T13:28:53;100209.81;;;23.44;30.17
33554;BME280;19885;42.208;24.952;2023-05-02T13:31:20;100209.44;;;23.53;29.42
33554;BME280;19885;42.208;24.952;2023-05-02T13:33:45;100199.97;;;23.67;28.81